sensor_id;sensor_type;location;lat;lon;timestamp;pressure;altitude;pressure_sealevel;temperature;humidity
55373;BME280;41249;47.838;16.490;2023-05-03T00:00:17;99878.53;;;6.11;87.62
55373;BME280;41249;47.838;16.490;2023-05-03T00:02:45;99871.41;;;6.10;87.24
55373;BME280;41249;47.838;16.490;2023-05-03T00:05:12;99870.34;;;6.15;87.50
55373;BME280;41249;47.838;16.490;2023-05-03T00:07:41;99868.56;;;6.22;86.98
55373;BME280;41249;47.838;16.490;2023-05-03T00:10:08;99863.06;;;6.22;86.94
55373;BME280;41249;47.838;16.490;2023-05-03T00:12:41;99866.28;;;6.24;87.00
55373;BME280;41249;47.838;16.490;2023-05-03T00:15:08;99866.28;;;6.24;86.81
55373;BME280;41249;47.838;16.490;2023-05-03T00:17:35;99862.34;;;6.25;86.81
55373;BME280;41249;47.838;16.490;2023-05-03T00:20:04;99861.63;;;6.28;86.57
55373;BME280;41249;47.838;16.490;2023-05-03T00:22:31;99853.09;;;6.33;86.90
55373;BME280;41249;47.838;16.490;2023-05-03T00:24:58;99859.44;;;6.34;86.45
55373;BME280;41249;47.838;16.490;2023-05-03T00:27:25;99860.47;;;6.29;86.33
55373;BME280;41249;47.838;16.490;2023-05-03T00:29:52;99861.63;;;6.28;86.03
55373;BME280;41249;47.838;16.490;2023-05-03T00:32:19;99863.22;;;6.29;85.84
55373;BME280;41249;47.838;16.490;2023-05-03T00:34:55;99864.13;;;6.33;85.85
55373;BME280;41249;47.838;16.490;2023-05-03T00:37:22;99859.50;;;6.37;85.96
55373;BME280;41249;47.838;16.490;2023-05-03T00:39:49;99863.44;;;6.36;85.62
55373;BME280;41249;47.838;16.490;2023-05-03T00:42:16;99857.44;;;6.34;85.41
55373;BME280;41249;47.838;16.490;2023-05-03T00:44:43;99862.97;;;6.34;84.91
55373;BME280;41249;47.838;16.490;2023-05-03T00:47:10;99857.81;;;6.33;85.14
55373;BME280;41249;47.838;16.490;2023-05-03T00:49:36;99863.69;;;6.31;85.45
55373;BME280;41249;47.838;16.490;2023-05-03T00:52:04;99859.69;;;6.29;84.68
55373;BME280;41249;47.838;16.490;2023-05-03T00:54:32;99867.16;;;6.28;84.78
55373;BME280;41249;47.838;16.490;2023-05-03T00:57:00;99857.53;;;6.22;85.47
55373;BME280;41249;47.838;16.490;2023-05-03T00:59:31;99862.16;;;6.18;85.36
55373;BME280;41249;47.838;16.490;2023-05-03T01:01:58;99859.78;;;6.17;85.71
55373;BME280;41249;47.838;16.490;2023-05-03T01:04:25;99860.91;;;6.16;84.81
55373;BME280;41249;47.838;16.490;2023-05-03T01:12:34;99849.34;;;6.10;84.49
55373;BME280;41249;47.838;16.490;2023-05-03T01:15:16;99858.00;;;6.09;84.84
55373;BME280;41249;47.838;16.490;2023-05-03T01:17:49;99851.94;;;6.03;85.55
55373;BME280;41249;47.838;16.490;2023-05-03T01:20:21;99856.56;;;5.99;85.41
55373;BME280;41249;47.838;16.490;2023-05-03T01:25:36;99853.69;;;5.95;85.39
55373;BME280;41249;47.838;16.490;2023-05-03T01:28:02;99850.94;;;5.95;85.32
55373;BME280;41249;47.838;16.490;2023-05-03T01:30:29;99852.44;;;5.93;85.65
55373;BME280;41249;47.838;16.490;2023-05-03T01:35:46;99838.22;;;5.91;85.38
55373;BME280;41249;47.838;16.490;2023-05-03T01:38:16;99832.34;;;5.92;85.60
55373;BME280;41249;47.838;16.490;2023-05-03T01:40:46;99830.03;;;5.94;84.83
55373;BME280;41249;47.838;16.490;2023-05-03T01:43:17;99833.16;;;5.93;84.30
55373;BME280;41249;47.838;16.490;2023-05-03T01:45:44;99837.88;;;5.92;84.79
55373;BME280;41249;47.838;16.490;2023-05-03T01:48:14;99840.19;;;5.90;85.31
55373;BME280;41249;47.838;16.490;2023-05-03T01:50:41;99841.69;;;5.88;85.43
55373;BME280;41249;47.838;16.490;2023-05-03T01:53:07;99836.88;;;5.85;85.45
55373;BME280;41249;47.838;16.490;2023-05-03T01:55:34;99841.56;;;5.84;85.50
55373;BME280;41249;47.838;16.490;2023-05-03T01:58:02;99844.00;;;5.86;85.65
55373;BME280;41249;47.838;16.490;2023-05-03T02:00:29;99843.56;;;5.84;85.76
55373;BME280;41249;47.838;16.490;2023-05-03T02:02:55;99845.13;;;5.85;86.03
55373;BME280;41249;47.838;16.490;2023-05-03T02:05:23;99846.31;;;5.84;86.20
55373;BME280;41249;47.838;16.490;2023-05-03T02:07:51;99846.31;;;5.84;85.92
55373;BME280;41249;47.838;16.490;2023-05-03T02:10:18;99843.19;;;5.85;86.04
55373;BME280;41249;47.838;16.490;2023-05-03T02:12:45;99845.56;;;5.87;85.53
55373;BME280;41249;47.838;16.490;2023-05-03T02:15:11;99837.69;;;5.85;85.34
55373;BME280;41249;47.838;16.490;2023-05-03T02:17:39;99840.81;;;5.84;85.15
55373;BME280;41249;47.838;16.490;2023-05-03T02:20:06;99839.63;;;5.85;85.04
55373;BME280;41249;47.838;16.490;2023-05-03T02:22:36;99833.69;;;5.83;85.28
55373;BME280;41249;47.838;16.490;2023-05-03T02:25:03;99833.56;;;5.79;85.22
55373;BME280;41249;47.838;16.490;2023-05-03T02:27:30;99837.56;;;5.82;85.06
55373;BME280;41249;47.838;16.490;2023-05-03T02:29:59;99837.56;;;5.82;84.96
55373;BME280;41249;47.838;16.490;2023-05-03T02:32:27;99844.69;;;5.83;85.16
55373;BME280;41249;47.838;16.490;2023-05-03T02:34:54;99848.69;;;5.85;84.31
55373;BME280;41249;47.838;16.490;2023-05-03T02:37:21;99843.19;;;5.85;84.62
55373;BME280;41249;47.838;16.490;2023-05-03T02:39:49;99858.22;;;5.88;84.47
55373;BME280;41249;47.838;16.490;2023-05-03T02:42:16;99842.50;;;5.88;83.80
55373;BME280;41249;47.838;16.490;2023-05-03T02:44:44;99844.34;;;5.84;84.04
55373;BME280;41249;47.838;16.490;2023-05-03T02:47:11;99841.94;;;5.83;84.72
55373;BME280;41249;47.838;16.490;2023-05-03T02:49:38;99846.31;;;5.84;83.66
55373;BME280;41249;47.838;16.490;2023-05-03T02:52:05;99838.81;;;5.84;83.18
55373;BME280;41249;47.838;16.490;2023-05-03T02:54:32;99844.81;;;5.86;83.89
55373;BME280;41249;47.838;16.490;2023-05-03T02:56:58;99842.38;;;5.85;84.48
55373;BME280;41249;47.838;16.490;2023-05-03T02:59:27;99847.56;;;5.86;84.32
55373;BME280;41249;47.838;16.490;2023-05-03T03:01:53;99838.94;;;5.88;84.02
55373;BME280;41249;47.838;16.490;2023-05-03T03:04:20;99845.13;;;5.85;84.27
55373;BME280;41249;47.838;16.490;2023-05-03T03:06:48;99848.69;;;5.85;84.17
55373;BME280;41249;47.838;16.490;2023-05-03T03:09:14;99847.19;;;5.88;83.89
55373;BME280;41249;47.838;16.490;2023-05-03T03:11:41;99848.81;;;5.89;83.32
55373;BME280;41249;47.838;16.490;2023-05-03T03:14:08;99840.06;;;5.87;83.71
55373;BME280;41249;47.838;16.490;2023-05-03T03:16:34;99845.56;;;5.87;84.03
55373;BME280;41249;47.838;16.490;2023-05-03T03:19:01;99838.94;;;5.88;83.34
55373;BME280;41249;47.838;16.490;2023-05-03T03:21:27;99848.81;;;5.89;83.50
55373;BME280;41249;47.838;16.490;2023-05-03T03:23:54;99852.00;;;5.91;83.39
55373;BME280;41249;47.838;16.490;2023-05-03T03:26:21;99850.84;;;5.92;82.92
55373;BME280;41249;47.838;16.490;2023-05-03T03:28:47;99850.38;;;5.90;83.05
55373;BME280;41249;47.838;16.490;2023-05-03T03:31:14;99846.50;;;5.91;82.99
55373;BME280;41249;47.838;16.490;2023-05-03T03:33:40;99847.31;;;5.91;83.15
55373;BME280;41249;47.838;16.490;2023-05-03T03:36:07;99850.75;;;5.88;82.99
55373;BME280;41249;47.838;16.490;2023-05-03T03:38:35;99851.91;;;5.87;83.52
55373;BME280;41249;47.838;16.490;2023-05-03T03:41:01;99852.25;;;5.86;83.01
55373;BME280;41249;47.838;16.490;2023-05-03T03:43:28;99847.19;;;5.88;82.22
55373;BME280;41249;47.838;16.490;2023-05-03T03:45:54;99854.31;;;5.89;82.46
55373;BME280;41249;47.838;16.490;2023-05-03T03:48:21;99848.88;;;5.92;82.40
55373;BME280;41249;47.838;16.490;2023-05-03T03:50:47;99857.59;;;5.94;82.83
55373;BME280;41249;47.838;16.490;2023-05-03T03:53:14;99863.22;;;5.98;82.97
55373;BME280;41249;47.838;16.490;2023-05-03T03:55:41;99861.59;;;5.97;82.58
55373;BME280;41249;47.838;16.490;2023-05-03T03:58:08;99868.03;;;6.01;82.27
55373;BME280;41249;47.838;16.490;2023-05-03T04:00:34;99873.88;;;5.99;81.57
55373;BME280;41249;47.838;16.490;2023-05-03T04:03:01;99873.53;;;6.01;82.23
55373;BME280;41249;47.838;16.490;2023-05-03T04:05:31;99880.63;;;6.02;82.42
55373;BME280;41249;47.838;16.490;2023-05-03T04:07:58;99879.03;;;6.01;81.65
55373;BME280;41249;47.838;16.490;2023-05-03T04:10:24;99875.59;;;6.04;81.51
55373;BME280;41249;47.838;16.490;2023-05-03T04:12:51;99881.53;;;6.06;81.47
55373;BME280;41249;47.838;16.490;2023-05-03T04:15:17;99879.94;;;6.05;81.82
55373;BME280;41249;47.838;16.490;2023-05-03T04:17:44;99889.38;;;6.04;82.32
55373;BME280;41249;47.838;16.490;2023-05-03T04:20:10;99887.13;;;6.10;81.76
55373;BME280;41249;47.838;16.490;2023-05-03T04:22:37;99890.38;;;6.12;81.32
55373;BME280;41249;47.838;16.490;2023-05-03T04:25:10;99891.59;;;6.14;81.36
55373;BME280;41249;47.838;16.490;2023-05-03T04:27:41;99901.22;;;6.20;81.63
55373;BME280;41249;47.838;16.490;2023-05-03T04:30:07;99894.63;;;6.25;82.12
55373;BME280;41249;47.838;16.490;2023-05-03T04:32:34;99897.94;;;6.30;81.40
55373;BME280;41249;47.838;16.490;2023-05-03T04:35:03;99898.72;;;6.31;80.44
55373;BME280;41249;47.838;16.490;2023-05-03T04:37:34;99898.09;;;6.37;80.17
55373;BME280;41249;47.838;16.490;2023-05-03T04:40:00;99901.41;;;6.43;80.06
55373;BME280;41249;47.838;16.490;2023-05-03T04:42:27;99900.00;;;6.49;80.46
55373;BME280;41249;47.838;16.490;2023-05-03T04:44:53;99912.28;;;6.51;79.05
55373;BME280;41249;47.838;16.490;2023-05-03T04:47:20;99906.50;;;6.56;78.06
55373;BME280;41249;47.838;16.490;2023-05-03T04:49:46;99920.09;;;6.65;78.97
55373;BME280;41249;47.838;16.490;2023-05-03T04:52:13;99921.09;;;6.73;78.54
55373;BME280;41249;47.838;16.490;2023-05-03T04:54:39;99912.38;;;6.71;77.79
55373;BME280;41249;47.838;16.490;2023-05-03T04:57:06;99923.59;;;6.78;78.16
55373;BME280;41249;47.838;16.490;2023-05-03T04:59:32;99933.91;;;6.81;78.30
55373;BME280;41249;47.838;16.490;2023-05-03T05:01:59;99933.91;;;6.81;77.68
55373;BME280;41249;47.838;16.490;2023-05-03T05:04:26;99933.38;;;6.91;78.23
55373;BME280;41249;47.838;16.490;2023-05-03T05:06:52;99940.66;;;6.99;77.59
55373;BME280;41249;47.838;16.490;2023-05-03T05:09:20;99944.56;;;6.98;78.13
55373;BME280;41249;47.838;16.490;2023-05-03T05:11:47;99936.47;;;7.05;78.67
55373;BME280;41249;47.838;16.490;2023-05-03T05:14:13;99954.19;;;7.04;78.28
55373;BME280;41249;47.838;16.490;2023-05-03T05:16:40;99944.84;;;7.08;77.78
55373;BME280;41249;47.838;16.490;2023-05-03T05:19:07;99944.19;;;7.15;77.48
55373;BME280;41249;47.838;16.490;2023-05-03T05:21:33;99952.19;;;7.20;78.23
55373;BME280;41249;47.838;16.490;2023-05-03T05:24:00;99955.81;;;7.24;77.31
55373;BME280;41249;47.838;16.490;2023-05-03T05:26:27;99960.63;;;7.27;77.28
55373;BME280;41249;47.838;16.490;2023-05-03T05:28:53;99958.41;;;7.33;77.64
55373;BME280;41249;47.838;16.490;2023-05-03T05:31:20;99962.66;;;7.46;76.78
55373;BME280;41249;47.838;16.490;2023-05-03T05:33:47;99969.28;;;7.60;76.79
55373;BME280;41249;47.838;16.490;2023-05-03T05:36:13;99968.28;;;7.68;76.27
55373;BME280;41249;47.838;16.490;2023-05-03T05:38:40;99967.72;;;7.78;76.21
55373;BME280;41249;47.838;16.490;2023-05-03T05:41:06;99967.28;;;7.96;75.87
55373;BME280;41249;47.838;16.490;2023-05-03T05:43:33;99970.84;;;7.96;75.40
55373;BME280;41249;47.838;16.490;2023-05-03T05:45:59;99978.91;;;8.05;75.88
55373;BME280;41249;47.838;16.490;2023-05-03T05:48:26;99985.63;;;8.04;74.27
55373;BME280;41249;47.838;16.490;2023-05-03T05:50:52;99981.84;;;8.12;74.03
55373;BME280;41249;47.838;16.490;2023-05-03T05:53:19;99988.31;;;8.19;73.59
55373;BME280;41249;47.838;16.490;2023-05-03T05:55:45;99989.13;;;8.20;72.48
55373;BME280;41249;47.838;16.490;2023-05-03T05:58:12;99992.25;;;8.18;72.69
55373;BME280;41249;47.838;16.490;2023-05-03T06:00:39;99988.97;;;8.32;71.63
55373;BME280;41249;47.838;16.490;2023-05-03T06:03:06;99989.19;;;8.42;73.17
55373;BME280;41249;47.838;16.490;2023-05-03T06:05:32;99991.63;;;8.47;71.89
55373;BME280;41249;47.838;16.490;2023-05-03T06:07:59;99997.25;;;8.32;72.57
55373;BME280;41249;47.838;16.490;2023-05-03T06:10:25;99996.75;;;8.26;70.75
55373;BME280;41249;47.838;16.490;2023-05-03T06:12:52;99993.72;;;8.54;72.24
55373;BME280;41249;47.838;16.490;2023-05-03T06:15:18;100000.59;;;8.83;72.19
55373;BME280;41249;47.838;16.490;2023-05-03T06:17:45;99992.31;;;8.86;70.51
55373;BME280;41249;47.838;16.490;2023-05-03T06:20:12;100007.84;;;8.91;70.68
55373;BME280;41249;47.838;16.490;2023-05-03T06:22:39;100007.66;;;8.80;69.63
55373;BME280;41249;47.838;16.490;2023-05-03T06:25:05;100008.31;;;8.74;70.93
55373;BME280;41249;47.838;16.490;2023-05-03T06:27:35;100008.69;;;8.72;70.04
55373;BME280;41249;47.838;16.490;2023-05-03T06:30:03;100016.50;;;8.67;70.84
55373;BME280;41249;47.838;16.490;2023-05-03T06:32:31;100013.69;;;8.63;70.23
55373;BME280;41249;47.838;16.490;2023-05-03T06:34:57;100017.06;;;8.53;70.83
55373;BME280;41249;47.838;16.490;2023-05-03T06:37:27;100019.38;;;8.51;70.01
55373;BME280;41249;47.838;16.490;2023-05-03T06:39:53;100027.69;;;8.51;69.60
55373;BME280;41249;47.838;16.490;2023-05-03T06:42:20;100029.34;;;8.36;70.41
55373;BME280;41249;47.838;16.490;2023-05-03T06:44:46;100035.41;;;8.42;70.80
55373;BME280;41249;47.838;16.490;2023-05-03T06:47:13;100039.50;;;8.48;69.72
55373;BME280;41249;47.838;16.490;2023-05-03T06:49:39;100040.94;;;8.42;70.30
55373;BME280;41249;47.838;16.490;2023-05-03T06:52:06;100045.81;;;8.48;69.85
55373;BME280;41249;47.838;16.490;2023-05-03T06:54:36;100037.75;;;8.40;70.46
55373;BME280;41249;47.838;16.490;2023-05-03T06:57:02;100046.25;;;8.31;70.15
55373;BME280;41249;47.838;16.490;2023-05-03T06:59:30;100039.84;;;8.46;69.92
55373;BME280;41249;47.838;16.490;2023-05-03T07:01:57;100040.28;;;8.48;69.31
55373;BME280;41249;47.838;16.490;2023-05-03T07:04:24;100034.88;;;8.55;69.78
55373;BME280;41249;47.838;16.490;2023-05-03T07:06:50;100035.34;;;8.80;69.49
55373;BME280;41249;47.838;16.490;2023-05-03T07:09:22;100040.19;;;8.64;69.39
55373;BME280;41249;47.838;16.490;2023-05-03T07:12:07;100040.88;;;8.80;69.24
55373;BME280;41249;47.838;16.490;2023-05-03T07:14:34;100045.94;;;8.97;69.36
55373;BME280;41249;47.838;16.490;2023-05-03T07:17:00;100041.19;;;8.75;68.03
55373;BME280;41249;47.838;16.490;2023-05-03T07:19:27;100042.00;;;8.76;68.61
55373;BME280;41249;47.838;16.490;2023-05-03T07:21:54;100048.00;;;8.59;68.17
55373;BME280;41249;47.838;16.490;2023-05-03T07:24:20;100049.03;;;8.50;69.68
55373;BME280;41249;47.838;16.490;2023-05-03T07:26:46;100047.22;;;8.81;69.37
55373;BME280;41249;47.838;16.490;2023-05-03T07:29:14;100048.69;;;8.97;67.32
55373;BME280;41249;47.838;16.490;2023-05-03T07:31:40;100045.69;;;8.83;67.70
55373;BME280;41249;47.838;16.490;2023-05-03T07:34:07;100050.94;;;8.88;67.96
55373;BME280;41249;47.838;16.490;2023-05-03T07:36:33;100054.06;;;9.09;67.69
55373;BME280;41249;47.838;16.490;2023-05-03T07:39:00;100056.31;;;9.27;67.23
55373;BME280;41249;47.838;16.490;2023-05-03T07:41:26;100049.25;;;9.06;67.23
55373;BME280;41249;47.838;16.490;2023-05-03T07:43:53;100052.28;;;9.20;66.45
55373;BME280;41249;47.838;16.490;2023-05-03T07:46:20;100049.44;;;9.17;67.74
55373;BME280;41249;47.838;16.490;2023-05-03T07:48:47;100047.53;;;9.70;66.88
55373;BME280;41249;47.838;16.490;2023-05-03T07:51:13;100056.81;;;9.81;65.34
55373;BME280;41249;47.838;16.490;2023-05-03T07:53:39;100054.03;;;9.55;65.37
55373;BME280;41249;47.838;16.490;2023-05-03T07:56:06;100049.03;;;9.64;65.87
55373;BME280;41249;47.838;16.490;2023-05-03T07:58:33;100049.19;;;10.01;64.88
55373;BME280;41249;47.838;16.490;2023-05-03T08:01:06;100051.00;;;9.63;64.64
55373;BME280;41249;47.838;16.490;2023-05-03T08:03:32;100049.13;;;9.71;65.28
55373;BME280;41249;47.838;16.490;2023-05-03T08:05:59;100051.41;;;9.92;63.91
55373;BME280;41249;47.838;16.490;2023-05-03T08:08:26;100059.69;;;9.88;63.67
55373;BME280;41249;47.838;16.490;2023-05-03T08:10:53;100056.84;;;9.84;64.04
55373;BME280;41249;47.838;16.490;2023-05-03T08:13:19;100061.03;;;10.31;64.31
55373;BME280;41249;47.838;16.490;2023-05-03T08:15:48;100063.69;;;10.20;63.49
55373;BME280;41249;47.838;16.490;2023-05-03T08:18:14;100064.44;;;10.47;62.40
55373;BME280;41249;47.838;16.490;2023-05-03T08:20:41;100056.81;;;10.40;61.80
55373;BME280;41249;47.838;16.490;2023-05-03T08:23:08;100055.59;;;10.38;61.68
55373;BME280;41249;47.838;16.490;2023-05-03T08:25:36;100058.94;;;10.51;62.90
55373;BME280;41249;47.838;16.490;2023-05-03T08:28:03;100069.13;;;10.76;61.69
55373;BME280;41249;47.838;16.490;2023-05-03T08:30:29;100065.25;;;10.48;60.40
55373;BME280;41249;47.838;16.490;2023-05-03T08:32:56;100060.78;;;10.73;62.06
55373;BME280;41249;47.838;16.490;2023-05-03T08:35:23;100066.25;;;10.66;61.74
55373;BME280;41249;47.838;16.490;2023-05-03T08:37:50;100063.66;;;10.83;61.25
55373;BME280;41249;47.838;16.490;2023-05-03T08:40:19;100052.81;;;10.71;60.58
55373;BME280;41249;47.838;16.490;2023-05-03T08:42:47;100072.66;;;10.40;62.37
55373;BME280;41249;47.838;16.490;2023-05-03T08:45:15;100074.81;;;10.20;63.14
55373;BME280;41249;47.838;16.490;2023-05-03T08:47:42;100078.16;;;10.36;62.51
55373;BME280;41249;47.838;16.490;2023-05-03T08:50:11;100078.34;;;9.91;62.95
55373;BME280;41249;47.838;16.490;2023-05-03T08:52:38;100076.59;;;9.79;63.97
55373;BME280;41249;47.838;16.490;2023-05-03T08:55:06;100074.94;;;9.75;64.20
55373;BME280;41249;47.838;16.490;2023-05-03T08:57:33;100068.28;;;10.09;63.65
55373;BME280;41249;47.838;16.490;2023-05-03T09:00:00;100071.81;;;10.36;61.98
55373;BME280;41249;47.838;16.490;2023-05-03T09:02:28;100077.25;;;10.25;62.89
55373;BME280;41249;47.838;16.490;2023-05-03T09:04:55;100082.41;;;10.27;61.76
55373;BME280;41249;47.838;16.490;2023-05-03T09:07:22;100080.44;;;10.27;62.74
55373;BME280;41249;47.838;16.490;2023-05-03T09:09:48;100076.03;;;10.89;58.99
55373;BME280;41249;47.838;16.490;2023-05-03T09:12:33;100064.69;;;11.08;59.17
55373;BME280;41249;47.838;16.490;2023-05-03T09:15:01;100075.53;;;12.29;58.44
55373;BME280;41249;47.838;16.490;2023-05-03T09:17:28;100079.41;;;12.11;56.08
55373;BME280;41249;47.838;16.490;2023-05-03T09:19:56;100064.94;;;12.56;55.14
55373;BME280;41249;47.838;16.490;2023-05-03T09:22:24;100076.16;;;12.84;53.20
55373;BME280;41249;47.838;16.490;2023-05-03T09:24:54;100062.63;;;12.86;52.54
55373;BME280;41249;47.838;16.490;2023-05-03T09:27:21;100063.38;;;12.62;53.51
55373;BME280;41249;47.838;16.490;2023-05-03T09:29:49;100061.41;;;12.70;54.31
55373;BME280;41249;47.838;16.490;2023-05-03T09:32:16;100072.22;;;13.14;54.34
55373;BME280;41249;47.838;16.490;2023-05-03T09:34:43;100048.94;;;12.46;54.28
55373;BME280;41249;47.838;16.490;2023-05-03T09:37:09;100049.44;;;12.66;55.51
55373;BME280;41249;47.838;16.490;2023-05-03T09:39:36;100048.25;;;12.74;54.81
55373;BME280;41249;47.838;16.490;2023-05-03T09:42:09;100052.53;;;12.50;55.09
55373;BME280;41249;47.838;16.490;2023-05-03T09:44:39;100061.00;;;11.85;55.77
55373;BME280;41249;47.838;16.490;2023-05-03T09:47:05;100053.00;;;11.84;56.40
55373;BME280;41249;47.838;16.490;2023-05-03T09:49:32;100042.25;;;11.79;56.81
55373;BME280;41249;47.838;16.490;2023-05-03T09:51:59;100043.84;;;11.80;56.83
55373;BME280;41249;47.838;16.490;2023-05-03T09:54:26;100052.69;;;11.96;56.90
55373;BME280;41249;47.838;16.490;2023-05-03T09:56:53;100037.16;;;11.88;56.89
55373;BME280;41249;47.838;16.490;2023-05-03T09:59:20;100041.75;;;12.38;57.49
55373;BME280;41249;47.838;16.490;2023-05-03T10:01:47;100031.59;;;12.98;55.29
55373;BME280;41249;47.838;16.490;2023-05-03T10:04:16;100028.81;;;13.06;53.30
55373;BME280;41249;47.838;16.490;2023-05-03T10:06:46;100038.78;;;13.14;54.51
55373;BME280;41249;47.838;16.490;2023-05-03T10:09:22;100030.31;;;12.68;54.13
55373;BME280;41249;47.838;16.490;2023-05-03T10:11:53;100038.56;;;12.36;55.01
55373;BME280;41249;47.838;16.490;2023-05-03T10:14:20;100026.38;;;12.90;54.01
55373;BME280;41249;47.838;16.490;2023-05-03T10:16:48;100028.34;;;12.65;54.18
55373;BME280;41249;47.838;16.490;2023-05-03T10:19:42;100021.97;;;12.61;54.73
55373;BME280;41249;47.838;16.490;2023-05-03T10:22:02;100012.06;;;12.84;54.88
55373;BME280;41249;47.838;16.490;2023-05-03T10:24:33;100034.75;;;12.93;55.03
55373;BME280;41249;47.838;16.490;2023-05-03T10:27:00;100030.81;;;12.94;52.67
55373;BME280;41249;47.838;16.490;2023-05-03T10:32:00;100038.31;;;12.76;51.63
55373;BME280;41249;47.838;16.490;2023-05-03T10:34:30;100032.19;;;12.35;52.89
55373;BME280;41249;47.838;16.490;2023-05-03T10:37:00;100023.78;;;12.21;51.94
55373;BME280;41249;47.838;16.490;2023-05-03T10:39:27;100036.66;;;12.58;50.92
55373;BME280;41249;47.838;16.490;2023-05-03T10:44:27;100025.88;;;12.42;48.49
55373;BME280;41249;47.838;16.490;2023-05-03T10:46:54;100023.16;;;12.63;50.38
55373;BME280;41249;47.838;16.490;2023-05-03T10:49:21;100018.03;;;12.72;49.95
55373;BME280;41249;47.838;16.490;2023-05-03T10:51:48;100016.06;;;13.50;50.20
55373;BME280;41249;47.838;16.490;2023-05-03T10:54:14;100016.75;;;14.07;46.57
55373;BME280;41249;47.838;16.490;2023-05-03T10:56:46;100004.38;;;14.08;48.18
55373;BME280;41249;47.838;16.490;2023-05-03T10:59:13;100026.75;;;13.87;46.14
55373;BME280;41249;47.838;16.490;2023-05-03T11:01:39;100018.84;;;13.26;47.14
55373;BME280;41249;47.838;16.490;2023-05-03T11:04:11;100017.25;;;13.35;45.74
55373;BME280;41249;47.838;16.490;2023-05-03T11:06:39;100016.47;;;12.99;47.44
55373;BME280;41249;47.838;16.490;2023-05-03T11:09:11;100007.31;;;13.06;48.48
55373;BME280;41249;47.838;16.490;2023-05-03T11:11:40;100005.72;;;13.61;48.45
55373;BME280;41249;47.838;16.490;2023-05-03T11:14:07;100003.72;;;13.34;47.43
55373;BME280;41249;47.838;16.490;2023-05-03T11:16:34;100000.91;;;13.37;48.40
55373;BME280;41249;47.838;16.490;2023-05-03T11:19:02;99990.47;;;13.87;45.93
55373;BME280;41249;47.838;16.490;2023-05-03T11:21:28;100004.44;;;13.87;47.19
55373;BME280;41249;47.838;16.490;2023-05-03T11:23:57;100004.88;;;13.75;47.06
55373;BME280;41249;47.838;16.490;2023-05-03T11:26:23;100002.94;;;13.61;46.20
55373;BME280;41249;47.838;16.490;2023-05-03T11:28:52;99995.75;;;13.50;46.26
55373;BME280;41249;47.838;16.490;2023-05-03T11:31:19;100006.91;;;13.39;46.33
55373;BME280;41249;47.838;16.490;2023-05-03T11:33:46;100010.91;;;13.56;47.22
55373;BME280;41249;47.838;16.490;2023-05-03T11:36:14;100014.06;;;13.58;48.09
55373;BME280;41249;47.838;16.490;2023-05-03T11:38:41;99994.53;;;13.40;45.95
55373;BME280;41249;47.838;16.490;2023-05-03T11:41:11;100020.47;;;13.44;45.74
55373;BME280;41249;47.838;16.490;2023-05-03T11:43:39;100014.06;;;13.23;46.58
55373;BME280;41249;47.838;16.490;2023-05-03T11:46:06;100008.47;;;13.30;47.18
55373;BME280;41249;47.838;16.490;2023-05-03T11:48:33;100012.47;;;13.43;46.70
55373;BME280;41249;47.838;16.490;2023-05-03T11:51:05;100004.50;;;13.66;44.42
55373;BME280;41249;47.838;16.490;2023-05-03T11:53:32;100006.84;;;13.85;45.54
55373;BME280;41249;47.838;16.490;2023-05-03T11:55:59;100010.44;;;13.89;44.93
55373;BME280;41249;47.838;16.490;2023-05-03T11:58:25;100005.31;;;13.63;42.32
55373;BME280;41249;47.838;16.490;2023-05-03T12:00:53;99996.06;;;13.91;43.79
55373;BME280;41249;47.838;16.490;2023-05-03T12:03:20;100001.19;;;14.03;43.86
55373;BME280;41249;47.838;16.490;2023-05-03T12:05:52;100012.69;;;14.22;43.43
55373;BME280;41249;47.838;16.490;2023-05-03T12:08:20;100006.13;;;13.56;43.64
55373;BME280;41249;47.838;16.490;2023-05-03T12:10:50;99998.13;;;13.41;44.67
55373;BME280;41249;47.838;16.490;2023-05-03T12:13:26;99996.97;;;13.49;44.98
55373;BME280;41249;47.838;16.490;2023-05-03T12:15:58;99999.69;;;13.84;46.08
55373;BME280;41249;47.838;16.490;2023-05-03T12:18:45;99995.75;;;13.53;44.61
55373;BME280;41249;47.838;16.490;2023-05-03T12:21:13;100004.50;;;13.41;44.64
55373;BME280;41249;47.838;16.490;2023-05-03T12:23:43;100003.75;;;13.20;46.12
55373;BME280;41249;47.838;16.490;2023-05-03T12:26:11;99994.97;;;13.11;46.98
55373;BME280;41249;47.838;16.490;2023-05-03T12:28:39;99990.97;;;13.15;46.57
55373;BME280;41249;47.838;16.490;2023-05-03T12:31:06;100000.53;;;13.18;47.02
55373;BME280;41249;47.838;16.490;2023-05-03T12:33:33;99983.00;;;13.31;46.97
55373;BME280;41249;47.838;16.490;2023-05-03T12:36:03;99994.97;;;13.53;46.33
55373;BME280;41249;47.838;16.490;2023-05-03T12:38:35;100001.25;;;13.85;46.44
55373;BME280;41249;47.838;16.490;2023-05-03T12:41:03;99994.56;;;13.44;45.90
55373;BME280;41249;47.838;16.490;2023-05-03T12:43:34;99990.19;;;13.57;46.29
55373;BME280;41249;47.838;16.490;2023-05-03T12:46:01;99992.56;;;13.55;45.48
55373;BME280;41249;47.838;16.490;2023-05-03T12:48:51;99996.53;;;12.90;47.50
55373;BME280;41249;47.838;16.490;2023-05-03T12:51:19;99978.25;;;12.82;48.26
55373;BME280;41249;47.838;16.490;2023-05-03T12:53:51;99990.97;;;12.80;47.29
55373;BME280;41249;47.838;16.490;2023-05-03T12:56:20;99990.50;;;12.60;48.42
55373;BME280;41249;47.838;16.490;2023-05-03T12:58:50;99982.47;;;12.37;48.43
55373;BME280;41249;47.838;16.490;2023-05-03T13:01:37;99974.94;;;12.45;47.92
55373;BME280;41249;47.838;16.490;2023-05-03T13:04:24;99982.13;;;12.50;48.65
55373;BME280;41249;47.838;16.490;2023-05-03T13:06:55;99964.66;;;12.56;48.96
55373;BME280;41249;47.838;16.490;2023-05-03T13:09:26;99968.66;;;12.69;47.71
55373;BME280;41249;47.838;16.490;2023-05-03T13:12:03;99984.97;;;12.67;49.14